sensor_id;sensor_type;location;lat;lon;timestamp;temperature;humidity
15409;DHT22;7803;48.130;13.788;2023-03-08T00:02:49;22.40;65.70
15409;DHT22;7803;48.130;13.788;2023-03-08T00:05:54;22.40;65.70
15409;DHT22;7803;48.130;13.788;2023-03-08T00:08:57;22.40;65.70
15409;DHT22;7803;48.130;13.788;2023-03-08T00:11:59;22.30;65.70
15409;DHT22;7803;48.130;13.788;2023-03-08T00:15:01;22.30;65.70
15409;DHT22;7803;48.130;13.788;2023-03-08T00:18:04;22.30;65.70
15409;DHT22;7803;48.130;13.788;2023-03-08T00:21:09;22.30;65.70
15409;DHT22;7803;48.130;13.788;2023-03-08T00:24:13;22.30;65.70
15409;DHT22;7803;48.130;13.788;2023-03-08T00:27:16;22.30;65.70
15409;DHT22;7803;48.130;13.788;2023-03-08T00:30:18;22.30;65.70
15409;DHT22;7803;48.130;13.788;2023-03-08T00:33:21;22.30;65.70
15409;DHT22;7803;48.130;13.788;2023-03-08T00:36:24;22.30;65.60
15409;DHT22;7803;48.130;13.788;2023-03-08T00:39:26;22.30;65.70
15409;DHT22;7803;48.130;13.788;2023-03-08T00:42:28;22.30;65.70
15409;DHT22;7803;48.130;13.788;2023-03-08T00:45:30;22.30;65.70
15409;DHT22;7803;48.130;13.788;2023-03-08T00:48:32;22.20;65.70
15409;DHT22;7803;48.130;13.788;2023-03-08T00:51:36;22.20;65.70
15409;DHT22;7803;48.130;13.788;2023-03-08T00:54:38;22.20;65.70
15409;DHT22;7803;48.130;13.788;2023-03-08T00:57:40;22.20;65.80
15409;DHT22;7803;48.130;13.788;2023-03-08T01:00:43;22.20;65.70
15409;DHT22;7803;48.130;13.788;2023-03-08T01:03:45;22.20;65.70
15409;DHT22;7803;48.130;13.788;2023-03-08T01:06:48;22.20;65.80
15409;DHT22;7803;48.130;13.788;2023-03-08T01:09:53;22.20;65.70
15409;DHT22;7803;48.130;13.788;2023-03-08T01:12:56;22.20;65.70
15409;DHT22;7803;48.130;13.788;2023-03-08T01:15:58;22.20;65.70
15409;DHT22;7803;48.130;13.788;2023-03-08T01:19:01;22.20;65.70
15409;DHT22;7803;48.130;13.788;2023-03-08T01:22:05;22.20;65.70
15409;DHT22;7803;48.130;13.788;2023-03-08T01:25:07;22.20;65.70
15409;DHT22;7803;48.130;13.788;2023-03-08T01:28:09;22.20;65.70
15409;DHT22;7803;48.130;13.788;2023-03-08T01:31:13;22.20;65.80
15409;DHT22;7803;48.130;13.788;2023-03-08T01:34:16;22.20;65.70
15409;DHT22;7803;48.130;13.788;2023-03-08T01:37:19;22.10;65.70
15409;DHT22;7803;48.130;13.788;2023-03-08T01:40:21;22.10;65.70
15409;DHT22;7803;48.130;13.788;2023-03-08T01:43:25;22.10;65.70
15409;DHT22;7803;48.130;13.788;2023-03-08T01:46:28;22.10;65.70
15409;DHT22;7803;48.130;13.788;2023-03-08T01:49:32;22.10;65.60
15409;DHT22;7803;48.130;13.788;2023-03-08T01:52:40;22.10;65.60
15409;DHT22;7803;48.130;13.788;2023-03-08T01:55:42;22.20;65.70
15409;DHT22;7803;48.130;13.788;2023-03-08T01:58:47;22.10;65.60
15409;DHT22;7803;48.130;13.788;2023-03-08T02:01:54;22.10;65.70
15409;DHT22;7803;48.130;13.788;2023-03-08T02:04:56;22.10;65.70
15409;DHT22;7803;48.130;13.788;2023-03-08T02:08:00;22.10;65.70
15409;DHT22;7803;48.130;13.788;2023-03-08T02:11:02;22.10;65.70
15409;DHT22;7803;48.130;13.788;2023-03-08T02:14:04;22.10;65.70
15409;DHT22;7803;48.130;13.788;2023-03-08T02:17:06;22.10;65.80
15409;DHT22;7803;48.130;13.788;2023-03-08T02:20:12;22.10;65.80
15409;DHT22;7803;48.130;13.788;2023-03-08T02:23:19;22.10;65.70
15409;DHT22;7803;48.130;13.788;2023-03-08T02:26:21;22.10;65.70
15409;DHT22;7803;48.130;13.788;2023-03-08T02:29:24;22.10;65.70
15409;DHT22;7803;48.130;13.788;2023-03-08T02:32:26;22.10;65.60
15409;DHT22;7803;48.130;13.788;2023-03-08T02:35:28;22.10;65.70
15409;DHT22;7803;48.130;13.788;2023-03-08T02:38:31;22.00;65.70
15409;DHT22;7803;48.130;13.788;2023-03-08T02:41:33;22.00;65.70
15409;DHT22;7803;48.130;13.788;2023-03-08T02:44:35;22.00;65.70
15409;DHT22;7803;48.130;13.788;2023-03-08T02:47:38;22.00;65.70
15409;DHT22;7803;48.130;13.788;2023-03-08T02:50:40;22.00;65.70
15409;DHT22;7803;48.130;13.788;2023-03-08T02:53:43;22.00;65.70
15409;DHT22;7803;48.130;13.788;2023-03-08T02:56:45;22.00;65.70
15409;DHT22;7803;48.130;13.788;2023-03-08T02:59:47;22.00;65.70
15409;DHT22;7803;48.130;13.788;2023-03-08T03:02:49;22.00;65.70
15409;DHT22;7803;48.130;13.788;2023-03-08T03:05:51;22.00;65.60
15409;DHT22;7803;48.130;13.788;2023-03-08T03:08:54;22.00;65.70
15409;DHT22;7803;48.130;13.788;2023-03-08T03:11:56;22.00;65.60
15409;DHT22;7803;48.130;13.788;2023-03-08T03:15:00;22.00;65.60
15409;DHT22;7803;48.130;13.788;2023-03-08T03:18:02;22.00;65.70
15409;DHT22;7803;48.130;13.788;2023-03-08T03:21:07;22.00;65.70
15409;DHT22;7803;48.130;13.788;2023-03-08T03:24:11;22.00;65.70
15409;DHT22;7803;48.130;13.788;2023-03-08T03:27:14;22.00;65.80
15409;DHT22;7803;48.130;13.788;2023-03-08T03:30:16;21.90;65.70
15409;DHT22;7803;48.130;13.788;2023-03-08T03:33:18;21.90;65.70
15409;DHT22;7803;48.130;13.788;2023-03-08T03:36:21;21.90;65.70
15409;DHT22;7803;48.130;13.788;2023-03-08T03:39:25;21.90;65.60
15409;DHT22;7803;48.130;13.788;2023-03-08T03:42:30;21.90;65.60
15409;DHT22;7803;48.130;13.788;2023-03-08T03:45:32;22.00;65.70
15409;DHT22;7803;48.130;13.788;2023-03-08T03:48:34;21.90;65.60
15409;DHT22;7803;48.130;13.788;2023-03-08T03:51:37;21.90;65.70
15409;DHT22;7803;48.130;13.788;2023-03-08T03:54:40;21.90;65.70
15409;DHT22;7803;48.130;13.788;2023-03-08T03:57:42;21.90;65.70
15409;DHT22;7803;48.130;13.788;2023-03-08T04:00:44;21.90;65.70
15409;DHT22;7803;48.130;13.788;2023-03-08T04:03:47;21.90;65.70
15409;DHT22;7803;48.130;13.788;2023-03-08T04:06:49;21.90;65.70
15409;DHT22;7803;48.130;13.788;2023-03-08T04:09:52;21.80;65.70
15409;DHT22;7803;48.130;13.788;2023-03-08T04:12:54;21.90;65.70
15409;DHT22;7803;48.130;13.788;2023-03-08T04:15:56;21.90;65.70
15409;DHT22;7803;48.130;13.788;2023-03-08T04:19:00;21.90;65.60
15409;DHT22;7803;48.130;13.788;2023-03-08T04:22:03;21.90;65.60
15409;DHT22;7803;48.130;13.788;2023-03-08T04:25:07;21.90;65.60
15409;DHT22;7803;48.130;13.788;2023-03-08T04:28:09;21.90;65.60
15409;DHT22;7803;48.130;13.788;2023-03-08T04:31:13;21.90;65.70
15409;DHT22;7803;48.130;13.788;2023-03-08T04:34:15;21.80;65.50
15409;DHT22;7803;48.130;13.788;2023-03-08T04:37:17;21.90;65.50
15409;DHT22;7803;48.130;13.788;2023-03-08T04:40:21;21.90;65.50
15409;DHT22;7803;48.130;13.788;2023-03-08T04:43:23;21.80;65.50
15409;DHT22;7803;48.130;13.788;2023-03-08T04:46:26;21.80;65.50
15409;DHT22;7803;48.130;13.788;2023-03-08T04:49:29;21.80;65.50
15409;DHT22;7803;48.130;13.788;2023-03-08T04:52:31;21.80;65.50
15409;DHT22;7803;48.130;13.788;2023-03-08T04:55:35;21.80;65.40
15409;DHT22;7803;48.130;13.788;2023-03-08T04:58:38;21.80;65.40
15409;DHT22;7803;48.130;13.788;2023-03-08T05:01:40;21.80;65.40
15409;DHT22;7803;48.130;13.788;2023-03-08T05:04:43;21.90;65.40
15409;DHT22;7803;48.130;13.788;2023-03-08T05:07:45;21.90;65.40
15409;DHT22;7803;48.130;13.788;2023-03-08T05:10:52;21.90;65.30
15409;DHT22;7803;48.130;13.788;2023-03-08T05:13:58;21.90;65.30
15409;DHT22;7803;48.130;13.788;2023-03-08T05:17:00;21.90;65.20
15409;DHT22;7803;48.130;13.788;2023-03-08T05:20:03;21.90;65.20
15409;DHT22;7803;48.130;13.788;2023-03-08T05:23:05;22.00;65.30
15409;DHT22;7803;48.130;13.788;2023-03-08T05:26:10;22.00;65.20
15409;DHT22;7803;48.130;13.788;2023-03-08T05:29:12;22.00;65.20
15409;DHT22;7803;48.130;13.788;2023-03-08T05:32:14;22.00;65.20
15409;DHT22;7803;48.130;13.788;2023-03-08T05:35:17;22.00;65.20
15409;DHT22;7803;48.130;13.788;2023-03-08T05:38:19;22.00;65.20
15409;DHT22;7803;48.130;13.788;2023-03-08T05:41:22;22.00;65.20
15409;DHT22;7803;48.130;13.788;2023-03-08T05:44:24;22.00;65.20
15409;DHT22;7803;48.130;13.788;2023-03-08T05:47:26;22.00;65.20
15409;DHT22;7803;48.130;13.788;2023-03-08T05:50:29;22.00;65.20
15409;DHT22;7803;48.130;13.788;2023-03-08T05:53:32;22.00;65.20
15409;DHT22;7803;48.130;13.788;2023-03-08T05:56:35;22.00;65.20
15409;DHT22;7803;48.130;13.788;2023-03-08T05:59:37;22.00;65.20
15409;DHT22;7803;48.130;13.788;2023-03-08T06:02:39;22.00;65.20
15409;DHT22;7803;48.130;13.788;2023-03-08T06:05:42;22.10;65.20
15409;DHT22;7803;48.130;13.788;2023-03-08T06:08:44;22.10;65.20
15409;DHT22;7803;48.130;13.788;2023-03-08T06:11:48;22.10;65.20
15409;DHT22;7803;48.130;13.788;2023-03-08T06:14:50;22.10;65.20
15409;DHT22;7803;48.130;13.788;2023-03-08T06:17:52;22.10;65.10
15409;DHT22;7803;48.130;13.788;2023-03-08T06:20:56;22.10;65.10
15409;DHT22;7803;48.130;13.788;2023-03-08T06:23:58;22.10;65.00
15409;DHT22;7803;48.130;13.788;2023-03-08T06:27:04;22.10;65.00
15409;DHT22;7803;48.130;13.788;2023-03-08T06:30:08;22.20;65.00
15409;DHT22;7803;48.130;13.788;2023-03-08T06:33:10;22.20;65.00
15409;DHT22;7803;48.130;13.788;2023-03-08T06:36:13;22.20;65.00
15409;DHT22;7803;48.130;13.788;2023-03-08T06:39:16;22.20;65.00
15409;DHT22;7803;48.130;13.788;2023-03-08T06:42:19;22.20;65.00
15409;DHT22;7803;48.130;13.788;2023-03-08T06:45:21;22.20;65.00
15409;DHT22;7803;48.130;13.788;2023-03-08T06:48:23;22.20;65.00
15409;DHT22;7803;48.130;13.788;2023-03-08T06:51:25;22.20;65.00
15409;DHT22;7803;48.130;13.788;2023-03-08T06:54:28;22.20;65.10
15409;DHT22;7803;48.130;13.788;2023-03-08T06:57:31;22.20;65.10
15409;DHT22;7803;48.130;13.788;2023-03-08T07:00:34;22.20;65.10
15409;DHT22;7803;48.130;13.788;2023-03-08T07:03:36;22.20;65.20
15409;DHT22;7803;48.130;13.788;2023-03-08T07:06:38;22.20;65.20
15409;DHT22;7803;48.130;13.788;2023-03-08T07:09:41;22.20;65.20
15409;DHT22;7803;48.130;13.788;2023-03-08T07:12:45;22.20;65.30
15409;DHT22;7803;48.130;13.788;2023-03-08T07:15:48;22.20;65.30
15409;DHT22;7803;48.130;13.788;2023-03-08T07:18:50;22.20;65.30
15409;DHT22;7803;48.130;13.788;2023-03-08T07:21:52;22.20;65.30
15409;DHT22;7803;48.130;13.788;2023-03-08T07:24:54;22.20;65.30
15409;DHT22;7803;48.130;13.788;2023-03-08T07:27:59;22.20;65.20
15409;DHT22;7803;48.130;13.788;2023-03-08T07:31:01;22.20;65.30
15409;DHT22;7803;48.130;13.788;2023-03-08T07:34:03;22.20;65.30
15409;DHT22;7803;48.130;13.788;2023-03-08T07:37:10;22.20;65.40
15409;DHT22;7803;48.130;13.788;2023-03-08T07:40:13;22.30;65.40
15409;DHT22;7803;48.130;13.788;2023-03-08T07:43:17;22.20;65.40
15409;DHT22;7803;48.130;13.788;2023-03-08T07:46:19;22.30;65.40
15409;DHT22;7803;48.130;13.788;2023-03-08T07:49:21;22.30;65.40
15409;DHT22;7803;48.130;13.788;2023-03-08T07:52:26;22.30;65.40
15409;DHT22;7803;48.130;13.788;2023-03-08T07:55:28;22.30;65.40
15409;DHT22;7803;48.130;13.788;2023-03-08T07:58:32;22.30;65.40
15409;DHT22;7803;48.130;13.788;2023-03-08T08:01:34;22.30;65.40
15409;DHT22;7803;48.130;13.788;2023-03-08T08:04:36;22.40;66.40
15409;DHT22;7803;48.130;13.788;2023-03-08T08:07:38;22.30;65.40
15409;DHT22;7803;48.130;13.788;2023-03-08T08:10:40;22.40;65.40
15409;DHT22;7803;48.130;13.788;2023-03-08T08:13:45;22.30;65.40
15409;DHT22;7803;48.130;13.788;2023-03-08T08:16:47;22.30;65.30
15409;DHT22;7803;48.130;13.788;2023-03-08T08:19:49;22.30;65.40
15409;DHT22;7803;48.130;13.788;2023-03-08T08:22:51;22.40;65.40
15409;DHT22;7803;48.130;13.788;2023-03-08T08:25:54;22.30;65.30
15409;DHT22;7803;48.130;13.788;2023-03-08T08:28:58;22.40;65.40
15409;DHT22;7803;48.130;13.788;2023-03-08T08:32:01;22.40;65.40
15409;DHT22;7803;48.130;13.788;2023-03-08T08:35:04;22.40;65.30
15409;DHT22;7803;48.130;13.788;2023-03-08T08:38:06;22.40;65.40
15409;DHT22;7803;48.130;13.788;2023-03-08T08:41:09;22.40;65.40
15409;DHT22;7803;48.130;13.788;2023-03-08T08:44:12;22.40;65.40
15409;DHT22;7803;48.130;13.788;2023-03-08T08:47:14;22.40;65.40
15409;DHT22;7803;48.130;13.788;2023-03-08T08:50:16;22.40;65.40
15409;DHT22;7803;48.130;13.788;2023-03-08T08:53:19;22.40;65.40
15409;DHT22;7803;48.130;13.788;2023-03-08T08:56:23;22.40;65.40
15409;DHT22;7803;48.130;13.788;2023-03-08T08:59:27;22.50;65.40
15409;DHT22;7803;48.130;13.788;2023-03-08T09:02:29;22.40;65.40
15409;DHT22;7803;48.130;13.788;2023-03-08T09:05:33;22.40;65.40
15409;DHT22;7803;48.130;13.788;2023-03-08T09:08:35;22.40;65.40
15409;DHT22;7803;48.130;13.788;2023-03-08T09:11:37;22.40;65.30
15409;DHT22;7803;48.130;13.788;2023-03-08T09:14:40;22.50;65.50
15409;DHT22;7803;48.130;13.788;2023-03-08T09:17:42;22.40;65.40
15409;DHT22;7803;48.130;13.788;2023-03-08T09:20:44;22.40;65.40
15409;DHT22;7803;48.130;13.788;2023-03-08T09:23:46;22.40;65.40
15409;DHT22;7803;48.130;13.788;2023-03-08T09:26:48;22.40;65.40
15409;DHT22;7803;48.130;13.788;2023-03-08T09:29:52;22.50;65.40
15409;DHT22;7803;48.130;13.788;2023-03-08T09:32:54;22.50;65.40
15409;DHT22;7803;48.130;13.788;2023-03-08T09:35:57;22.40;65.40
15409;DHT22;7803;48.130;13.788;2023-03-08T09:38:59;22.50;65.40
15409;DHT22;7803;48.130;13.788;2023-03-08T09:42:03;22.50;65.40
15409;DHT22;7803;48.130;13.788;2023-03-08T09:45:17;22.50;65.40
15409;DHT22;7803;48.130;13.788;2023-03-08T09:48:22;22.50;65.40
15409;DHT22;7803;48.130;13.788;2023-03-08T09:51:30;22.50;65.40
15409;DHT22;7803;48.130;13.788;2023-03-08T09:54:35;22.50;65.40
15409;DHT22;7803;48.130;13.788;2023-03-08T09:57:45;22.50;65.40
15409;DHT22;7803;48.130;13.788;2023-03-08T10:00:50;22.50;65.50
15409;DHT22;7803;48.130;13.788;2023-03-08T10:04:01;22.50;65.40
15409;DHT22;7803;48.130;13.788;2023-03-08T10:07:21;22.50;65.40
15409;DHT22;7803;48.130;13.788;2023-03-08T10:10:35;22.50;65.40
15409;DHT22;7803;48.130;13.788;2023-03-08T10:13:42;22.50;65.40
15409;DHT22;7803;48.130;13.788;2023-03-08T10:16:49;22.50;65.40
15409;DHT22;7803;48.130;13.788;2023-03-08T10:19:57;22.50;65.50
15409;DHT22;7803;48.130;13.788;2023-03-08T10:23:05;22.50;65.50
15409;DHT22;7803;48.130;13.788;2023-03-08T10:26:12;22.60;65.50
15409;DHT22;7803;48.130;13.788;2023-03-08T10:29:14;22.50;65.50
15409;DHT22;7803;48.130;13.788;2023-03-08T10:32:18;22.50;65.40
15409;DHT22;7803;48.130;13.788;2023-03-08T10:35:31;22.50;65.40
15409;DHT22;7803;48.130;13.788;2023-03-08T10:38:35;22.50;65.40
15409;DHT22;7803;48.130;13.788;2023-03-08T10:41:41;22.60;65.50
15409;DHT22;7803;48.130;13.788;2023-03-08T10:44:51;22.60;65.50
15409;DHT22;7803;48.130;13.788;2023-03-08T10:47:58;22.60;65.60
15409;DHT22;7803;48.130;13.788;2023-03-08T10:51:02;22.60;65.50
15409;DHT22;7803;48.130;13.788;2023-03-08T10:54:08;22.60;66.50
15409;DHT22;7803;48.130;13.788;2023-03-08T10:57:17;22.60;65.60
15409;DHT22;7803;48.130;13.788;2023-03-08T11:00:32;22.60;65.60
15409;DHT22;7803;48.130;13.788;2023-03-08T11:03:36;22.60;65.60
15409;DHT22;7803;48.130;13.788;2023-03-08T11:06:38;22.60;65.60
15409;DHT22;7803;48.130;13.788;2023-03-08T11:09:41;22.60;65.60
15409;DHT22;7803;48.130;13.788;2023-03-08T11:12:43;22.60;65.60
15409;DHT22;7803;48.130;13.788;2023-03-08T11:15:49;22.60;65.60
15409;DHT22;7803;48.130;13.788;2023-03-08T11:19:02;22.60;65.50
15409;DHT22;7803;48.130;13.788;2023-03-08T11:22:15;22.60;65.60
15409;DHT22;7803;48.130;13.788;2023-03-08T11:25:31;22.60;65.60
15409;DHT22;7803;48.130;13.788;2023-03-08T11:28:43;22.70;65.70
15409;DHT22;7803;48.130;13.788;2023-03-08T11:31:53;22.60;65.50
15409;DHT22;7803;48.130;13.788;2023-03-08T11:35:10;22.60;65.60
15409;DHT22;7803;48.130;13.788;2023-03-08T11:38:19;22.60;65.60
15409;DHT22;7803;48.130;13.788;2023-03-08T11:41:27;22.60;65.70
15409;DHT22;7803;48.130;13.788;2023-03-08T11:44:43;22.60;65.70
15409;DHT22;7803;48.130;13.788;2023-03-08T11:48:17;22.60;65.70
15409;DHT22;7803;48.130;13.788;2023-03-08T11:51:28;22.60;65.70
15409;DHT22;7803;48.130;13.788;2023-03-08T11:54:43;22.60;65.70
15409;DHT22;7803;48.130;13.788;2023-03-08T11:57:51;22.70;65.70
15409;DHT22;7803;48.130;13.788;2023-03-08T12:00:59;22.60;65.70
15409;DHT22;7803;48.130;13.788;2023-03-08T12:04:05;22.60;65.70
15409;DHT22;7803;48.130;13.788;2023-03-08T12:07:16;22.60;65.70
15409;DHT22;7803;48.130;13.788;2023-03-08T12:10:22;22.60;65.70
15409;DHT22;7803;48.130;13.788;2023-03-08T12:13:30;22.60;65.70
15409;DHT22;7803;48.130;13.788;2023-03-08T12:16:38;22.60;65.70
15409;DHT22;7803;48.130;13.788;2023-03-08T12:19:43;22.60;65.70
15409;DHT22;7803;48.130;13.788;2023-03-08T12:22:52;22.60;65.70
15409;DHT22;7803;48.130;13.788;2023-03-08T12:26:01;22.60;65.70
15409;DHT22;7803;48.130;13.788;2023-03-08T12:29:11;22.60;65.70
15409;DHT22;7803;48.130;13.788;2023-03-08T12:32:16;22.60;65.70
15409;DHT22;7803;48.130;13.788;2023-03-08T12:35:28;22.60;65.70
15409;DHT22;7803;48.130;13.788;2023-03-08T12:38:34;22.60;65.70
15409;DHT22;7803;48.130;13.788;2023-03-08T12:41:37;22.60;65.70
15409;DHT22;7803;48.130;13.788;2023-03-08T12:44:39;22.60;65.70
15409;DHT22;7803;48.130;13.788;2023-03-08T12:47:41;22.60;65.70
15409;DHT22;7803;48.130;13.788;2023-03-08T12:50:54;22.60;65.60
15409;DHT22;7803;48.130;13.788;2023-03-08T12:54:02;22.70;65.70
15409;DHT22;7803;48.130;13.788;2023-03-08T12:57:15;22.60;65.60
15409;DHT22;7803;48.130;13.788;2023-03-08T13:00:26;22.60;65.60
15409;DHT22;7803;48.130;13.788;2023-03-08T13:03:35;22.60;65.60
15409;DHT22;7803;48.130;13.788;2023-03-08T13:10:30;22.60;65.70
15409;DHT22;7803;48.130;13.788;2023-03-08T13:13:39;22.60;65.70
15409;DHT22;7803;48.130;13.788;2023-03-08T13:16:43;22.60;65.60
15409;DHT22;7803;48.130;13.788;2023-03-08T13:19:45;22.70;65.70
15409;DHT22;7803;48.130;13.788;2023-03-08T13:23:04;22.60;65.60
15409;DHT22;7803;48.130;13.788;2023-03-08T13:26:31;22.60;65.60
15409;DHT22;7803;48.130;13.788;2023-03-08T13:29:36;22.60;65.60
15409;DHT22;7803;48.130;13.788;2023-03-08T13:32:38;22.70;65.70
15409;DHT22;7803;48.130;13.788;2023-03-08T13:35:40;22.70;65.70
15409;DHT22;7803;48.130;13.788;2023-03-08T13:38:42;22.60;65.50
15409;DHT22;7803;48.130;13.788;2023-03-08T13:41:47;22.70;65.60
15409;DHT22;7803;48.130;13.788;2023-03-08T13:44:50;22.60;65.50
15409;DHT22;7803;48.130;13.788;2023-03-08T13:47:53;22.60;65.60
15409;DHT22;7803;48.130;13.788;2023-03-08T13:50:58;22.60;65.60
15409;DHT22;7803;48.130;13.788;2023-03-08T13:54:00;22.60;66.60
15409;DHT22;7803;48.130;13.788;2023-03-08T13:57:05;22.60;65.60
15409;DHT22;7803;48.130;13.788;2023-03-08T14:00:25;22.60;65.60
15409;DHT22;7803;48.130;13.788;2023-03-08T14:03:28;22.70;65.70
15409;DHT22;7803;48.130;13.788;2023-03-08T14:06:31;22.60;65.60
15409;DHT22;7803;48.130;13.788;2023-03-08T14:09:36;22.60;65.50
15409;DHT22;7803;48.130;13.788;2023-03-08T14:12:43;22.70;65.60
15409;DHT22;7803;48.130;13.788;2023-03-08T14:15:49;22.70;65.60
15409;DHT22;7803;48.130;13.788;2023-03-08T14:18:53;22.70;65.60
15409;DHT22;7803;48.130;13.788;2023-03-08T14:21:57;22.70;65.70
15409;DHT22;7803;48.130;13.788;2023-03-08T14:25:00;22.60;65.50
15409;DHT22;7803;48.130;13.788;2023-03-08T14:28:20;22.60;65.60
15409;DHT22;7803;48.130;13.788;2023-03-08T14:31:33;22.60;65.50
15409;DHT22;7803;48.130;13.788;2023-03-08T14:34:37;22.60;65.50
15409;DHT22;7803;48.130;13.788;2023-03-08T14:37:43;22.60;65.50
15409;DHT22;7803;48.130;13.788;2023-03-08T14:40:46;22.60;65.50
15409;DHT22;7803;48.130;13.788;2023-03-08T14:43:51;22.70;65.60
15409;DHT22;7803;48.130;13.788;2023-03-08T14:46:53;22.60;65.50
15409;DHT22;7803;48.130;13.788;2023-03-08T14:50:02;22.70;65.50
15409;DHT22;7803;48.130;13.788;2023-03-08T14:53:24;22.70;65.50
15409;DHT22;7803;48.130;13.788;2023-03-08T14:56:27;22.70;65.60
15409;DHT22;7803;48.130;13.788;2023-03-08T14:59:31;22.70;65.50
15409;DHT22;7803;48.130;13.788;2023-03-08T15:02:33;22.70;65.50
15409;DHT22;7803;48.130;13.788;2023-03-08T15:05:36;22.70;65.60
15409;DHT22;7803;48.130;13.788;2023-03-08T15:08:39;22.70;65.60
15409;DHT22;7803;48.130;13.788;2023-03-08T15:11:41;22.70;65.60
15409;DHT22;7803;48.130;13.788;2023-03-08T15:14:45;22.60;65.50
15409;DHT22;7803;48.130;13.788;2023-03-08T15:17:47;22.60;65.50
15409;DHT22;7803;48.130;13.788;2023-03-08T15:20:50;22.70;65.60
15409;DHT22;7803;48.130;13.788;2023-03-08T15:23:53;22.70;65.50
15409;DHT22;7803;48.130;13.788;2023-03-08T15:26:55;22.70;65.50
15409;DHT22;7803;48.130;13.788;2023-03-08T15:29:59;22.70;65.50
15409;DHT22;7803;48.130;13.788;2023-03-08T15:33:01;22.70;65.60
15409;DHT22;7803;48.130;13.788;2023-03-08T15:36:04;22.60;66.50
15409;DHT22;7803;48.130;13.788;2023-03-08T15:39:09;22.70;65.60
15409;DHT22;7803;48.130;13.788;2023-03-08T15:42:12;22.70;65.60
15409;DHT22;7803;48.130;13.788;2023-03-08T15:45:15;22.70;65.60
15409;DHT22;7803;48.130;13.788;2023-03-08T15:48:18;22.70;65.60
15409;DHT22;7803;48.130;13.788;2023-03-08T15:51:21;22.70;65.60
15409;DHT22;7803;48.130;13.788;2023-03-08T15:54:25;22.70;65.60
15409;DHT22;7803;48.130;13.788;2023-03-08T15:57:27;22.70;65.60
15409;DHT22;7803;48.130;13.788;2023-03-08T16:00:30;22.70;66.50
15409;DHT22;7803;48.130;13.788;2023-03-08T16:03:33;22.70;65.50
15409;DHT22;7803;48.130;13.788;2023-03-08T16:06:35;22.70;65.50
15409;DHT22;7803;48.130;13.788;2023-03-08T16:09:37;22.70;65.60
15409;DHT22;7803;48.130;13.788;2023-03-08T16:12:40;22.60;65.50
15409;DHT22;7803;48.130;13.788;2023-03-08T16:15:44;22.70;65.60
15409;DHT22;7803;48.130;13.788;2023-03-08T16:18:47;22.70;65.50
15409;DHT22;7803;48.130;13.788;2023-03-08T16:21:50;22.70;65.50
15409;DHT22;7803;48.130;13.788;2023-03-08T16:24:52;22.70;65.50
15409;DHT22;7803;48.130;13.788;2023-03-08T16:27:54;22.70;65.60
15409;DHT22;7803;48.130;13.788;2023-03-08T16:30:57;22.70;65.60
15409;DHT22;7803;48.130;13.788;2023-03-08T16:34:01;22.70;65.50
15409;DHT22;7803;48.130;13.788;2023-03-08T16:37:03;22.70;65.50
15409;DHT22;7803;48.130;13.788;2023-03-08T16:40:07;22.70;65.50
15409;DHT22;7803;48.130;13.788;2023-03-08T16:43:10;22.70;65.60
15409;DHT22;7803;48.130;13.788;2023-03-08T16:46:16;22.70;65.50
15409;DHT22;7803;48.130;13.788;2023-03-08T16:49:19;22.70;65.60
15409;DHT22;7803;48.130;13.788;2023-03-08T16:52:22;22.70;65.60
15409;DHT22;7803;48.130;13.788;2023-03-08T16:55:24;22.70;65.50
15409;DHT22;7803;48.130;13.788;2023-03-08T16:58:27;22.70;65.50
15409;DHT22;7803;48.130;13.788;2023-03-08T17:01:30;22.70;65.60
15409;DHT22;7803;48.130;13.788;2023-03-08T17:04:33;22.70;65.60
15409;DHT22;7803;48.130;13.788;2023-03-08T17:07:35;22.70;65.60
15409;DHT22;7803;48.130;13.788;2023-03-08T17:10:37;22.70;65.50
15409;DHT22;7803;48.130;13.788;2023-03-08T17:13:39;22.70;65.50
15409;DHT22;7803;48.130;13.788;2023-03-08T17:16:43;22.70;65.50
15409;DHT22;7803;48.130;13.788;2023-03-08T17:19:45;22.70;66.40
15409;DHT22;7803;48.130;13.788;2023-03-08T17:22:47;22.70;65.50
15409;DHT22;7803;48.130;13.788;2023-03-08T17:25:49;22.70;65.50
15409;DHT22;7803;48.130;13.788;2023-03-08T17:28:53;22.70;65.50
15409;DHT22;7803;48.130;13.788;2023-03-08T17:31:57;22.70;65.50
15409;DHT22;7803;48.130;13.788;2023-03-08T17:35:00;22.70;65.50
15409;DHT22;7803;48.130;13.788;2023-03-08T17:38:02;22.70;65.50
15409;DHT22;7803;48.130;13.788;2023-03-08T17:41:06;22.70;65.50
15409;DHT22;7803;48.130;13.788;2023-03-08T17:44:08;22.70;65.50
15409;DHT22;7803;48.130;13.788;2023-03-08T17:47:11;22.70;65.50
15409;DHT22;7803;48.130;13.788;2023-03-08T17:50:14;22.70;65.50
15409;DHT22;7803;48.130;13.788;2023-03-08T17:53:17;22.70;65.50
15409;DHT22;7803;48.130;13.788;2023-03-08T17:56:23;22.70;65.50
15409;DHT22;7803;48.130;13.788;2023-03-08T17:59:28;22.70;65.50
15409;DHT22;7803;48.130;13.788;2023-03-08T18:02:32;22.70;65.50
15409;DHT22;7803;48.130;13.788;2023-03-08T18:05:35;22.70;65.50
15409;DHT22;7803;48.130;13.788;2023-03-08T18:08:37;22.70;65.50
15409;DHT22;7803;48.130;13.788;2023-03-08T18:11:42;22.70;65.50
15409;DHT22;7803;48.130;13.788;2023-03-08T18:14:44;22.70;65.50
15409;DHT22;7803;48.130;13.788;2023-03-08T18:17:52;22.70;65.50
15409;DHT22;7803;48.130;13.788;2023-03-08T18:20:55;22.70;65.60
15409;DHT22;7803;48.130;13.788;2023-03-08T18:23:58;22.70;65.50
15409;DHT22;7803;48.130;13.788;2023-03-08T18:27:01;22.70;65.50
15409;DHT22;7803;48.130;13.788;2023-03-08T18:30:06;22.70;65.50
15409;DHT22;7803;48.130;13.788;2023-03-08T18:33:11;22.70;65.50
15409;DHT22;7803;48.130;13.788;2023-03-08T18:36:14;22.70;65.50
15409;DHT22;7803;48.130;13.788;2023-03-08T18:39:17;22.70;65.60
15409;DHT22;7803;48.130;13.788;2023-03-08T18:42:21;22.70;65.50
15409;DHT22;7803;48.130;13.788;2023-03-08T18:45:28;22.70;65.50
15409;DHT22;7803;48.130;13.788;2023-03-08T18:48:34;22.70;65.50
15409;DHT22;7803;48.130;13.788;2023-03-08T18:51:39;22.70;65.50
15409;DHT22;7803;48.130;13.788;2023-03-08T18:54:42;22.70;65.50
15409;DHT22;7803;48.130;13.788;2023-03-08T18:57:45;22.70;65.50
15409;DHT22;7803;48.130;13.788;2023-03-08T19:00:48;22.70;65.50
15409;DHT22;7803;48.130;13.788;2023-03-08T19:03:53;22.70;65.50
15409;DHT22;7803;48.130;13.788;2023-03-08T19:06:57;22.70;65.50
15409;DHT22;7803;48.130;13.788;2023-03-08T19:10:01;22.70;65.50
15409;DHT22;7803;48.130;13.788;2023-03-08T19:13:05;22.70;65.50
15409;DHT22;7803;48.130;13.788;2023-03-08T19:16:17;22.70;65.50
15409;DHT22;7803;48.130;13.788;2023-03-08T19:19:22;22.70;65.50
15409;DHT22;7803;48.130;13.788;2023-03-08T19:22:26;22.70;65.50
15409;DHT22;7803;48.130;13.788;2023-03-08T19:25:30;22.70;65.50
15409;DHT22;7803;48.130;13.788;2023-03-08T19:28:33;22.70;65.50